createdAt,value
2018-07-27T00:00:55.061Z,97897.45
2018-07-27T00:03:24.221Z,97900.06
2018-07-27T00:05:53.371Z,97906.79
2018-07-27T00:08:22.528Z,97899.58
2018-07-27T00:10:51.722Z,97905.83
2018-07-27T00:13:20.894Z,97906.48
2018-07-27T00:15:50.080Z,97902.96
2018-07-27T00:18:19.249Z,97901.28
2018-07-27T00:20:48.445Z,97906.45
2018-07-27T00:23:17.616Z,97910.43
2018-07-27T00:25:46.781Z,97911.05
2018-07-27T00:28:15.936Z,97911.62
2018-07-27T00:30:45.113Z,97903.47
2018-07-27T00:33:14.277Z,97905.12
2018-07-27T00:35:43.439Z,97907.34
2018-07-27T00:38:12.456Z,97910.64
2018-07-27T00:40:41.632Z,97904.72
2018-07-27T00:43:10.804Z,97911.36
2018-07-27T00:45:39.978Z,97913.58
2018-07-27T00:48:09.148Z,97906.47
2018-07-27T00:50:38.315Z,97912.39
2018-07-27T00:53:07.497Z,97909.98
2018-07-27T00:55:36.656Z,97910.15
2018-07-27T00:58:05.841Z,97912.44
2018-07-27T01:00:35.022Z,97905.16
2018-07-27T01:03:04.535Z,97902.64
2018-07-27T01:05:33.748Z,97900.36
2018-07-27T01:08:02.949Z,97896.59
2018-07-27T01:10:32.154Z,97904.11
2018-07-27T01:13:01.515Z,97897.59
2018-07-27T01:15:30.807Z,97898.88
2018-07-27T01:18:00.017Z,97897.00
2018-07-27T01:20:29.238Z,97898.17
2018-07-27T01:22:58.463Z,97902.97
2018-07-27T01:25:27.704Z,97903.31
2018-07-27T01:27:56.905Z,97897.85
2018-07-27T01:30:26.121Z,97899.21
2018-07-27T01:32:55.335Z,97891.70
2018-07-27T01:35:24.544Z,97890.34
2018-07-27T01:37:53.759Z,97894.09
2018-07-27T01:40:22.953Z,97891.38
2018-07-27T01:42:52.155Z,97896.84
2018-07-27T01:45:21.369Z,97900.88
2018-07-27T01:47:50.564Z,97899.99
2018-07-27T01:50:19.552Z,97899.33
2018-07-27T01:52:48.755Z,97897.81
2018-07-27T01:55:17.731Z,97891.32
2018-07-27T01:57:46.987Z,97894.95
2018-07-27T02:00:16.188Z,97893.46
2018-07-27T02:02:45.414Z,97891.73
2018-07-27T02:05:14.618Z,97895.00
2018-07-27T02:07:43.854Z,97893.64
2018-07-27T02:10:13.070Z,97895.84
2018-07-27T02:12:42.282Z,97887.91
2018-07-27T02:15:11.656Z,97887.51
2018-07-27T02:17:40.944Z,97889.92
2018-07-27T02:20:09.909Z,97886.62
2018-07-27T02:22:39.081Z,97890.09
2018-07-27T02:25:08.283Z,97885.25
2018-07-27T02:27:37.436Z,97891.94
2018-07-27T02:30:06.576Z,97886.53
2018-07-27T02:32:35.760Z,97882.00
2018-07-27T02:35:05.549Z,97884.64
2018-07-27T02:37:34.839Z,97884.73
2018-07-27T02:40:04.098Z,97880.41
2018-07-27T02:42:33.215Z,97882.45
2018-07-27T02:45:02.384Z,97885.30
2018-07-27T02:47:31.544Z,97884.54
2018-07-27T02:50:00.708Z,97885.25
2018-07-27T02:52:29.644Z,97882.89
2018-07-27T02:54:58.792Z,97882.95
2018-07-27T02:57:27.965Z,97874.48
2018-07-27T02:59:57.300Z,97876.59
2018-07-27T03:02:26.239Z,97883.41
2018-07-27T03:04:55.409Z,97881.66
2018-07-27T03:07:24.590Z,97879.90
2018-07-27T03:09:53.915Z,97873.09
2018-07-27T03:12:22.722Z,97871.44
2018-07-27T03:14:51.879Z,97874.52
2018-07-27T03:17:21.045Z,97871.58
2018-07-27T03:19:50.215Z,97872.38
2018-07-27T03:22:19.391Z,97874.04
2018-07-27T03:24:48.557Z,97870.18
2018-07-27T03:27:17.740Z,97865.05
2018-07-27T03:29:46.906Z,97869.63
2018-07-27T03:32:16.090Z,97868.34
2018-07-27T03:34:45.236Z,97870.80
2018-07-27T03:37:14.404Z,97866.12
2018-07-27T03:39:43.570Z,97864.52
2018-07-27T03:42:12.779Z,97860.82
2018-07-27T03:44:41.904Z,97861.65
2018-07-27T03:47:11.101Z,97861.54
2018-07-27T03:49:40.256Z,97869.04
2018-07-27T03:52:09.424Z,97866.36
2018-07-27T03:54:38.360Z,97860.18
2018-07-27T03:57:07.716Z,97867.25
2018-07-27T03:59:36.893Z,97869.79
2018-07-27T04:02:06.333Z,97867.50
2018-07-27T04:04:35.456Z,97869.03
2018-07-27T04:07:04.626Z,97868.92
2018-07-27T04:09:33.817Z,97868.02
2018-07-27T04:12:02.981Z,97862.09
2018-07-27T04:14:32.159Z,97860.21
2018-07-27T04:17:01.309Z,97863.23
2018-07-27T04:19:30.483Z,97873.17
2018-07-27T04:21:59.637Z,97868.35
2018-07-27T04:24:28.814Z,97867.64
2018-07-27T04:26:57.988Z,97866.07
2018-07-27T04:29:27.206Z,97866.59
2018-07-27T04:31:56.380Z,97864.78
2018-07-27T04:34:25.338Z,97862.78
2018-07-27T04:36:54.539Z,97864.07
2018-07-27T04:39:23.716Z,97868.22
2018-07-27T04:41:52.881Z,97867.22
2018-07-27T04:44:22.040Z,97860.64
2018-07-27T04:46:51.257Z,97865.81
2018-07-27T04:49:20.251Z,97864.19
2018-07-27T04:51:49.361Z,97869.56
2018-07-27T04:54:18.533Z,97869.33
2018-07-27T04:56:47.728Z,97867.59
2018-07-27T04:59:16.866Z,97869.45
2018-07-27T05:01:46.032Z,97866.47
2018-07-27T05:04:15.205Z,97864.36
2018-07-27T05:06:44.369Z,97865.36
2018-07-27T05:09:21.000Z,97866.98
2018-07-27T05:11:49.971Z,97870.53
2018-07-27T05:14:19.130Z,97873.65
2018-07-27T05:16:48.315Z,97869.95
2018-07-27T05:19:17.495Z,97871.32
2018-07-27T05:21:46.688Z,97876.38
2018-07-27T05:24:15.874Z,97877.30
2018-07-27T05:26:44.815Z,97872.09
2018-07-27T05:29:14.157Z,97880.20
2018-07-27T05:31:43.344Z,97874.55
2018-07-27T05:34:12.540Z,97873.16
2018-07-27T05:36:41.741Z,97876.20
2018-07-27T05:39:12.197Z,97876.66
2018-07-27T05:41:41.409Z,97881.59
2018-07-27T05:44:10.581Z,97881.97
2018-07-27T05:46:39.744Z,97872.07
2018-07-27T05:49:08.928Z,97877.52
2018-07-27T05:51:38.090Z,97874.23
2018-07-27T05:54:07.290Z,97885.45
2018-07-27T05:56:36.458Z,97884.27
2018-07-27T05:59:06.304Z,97887.61
2018-07-27T06:01:35.468Z,97879.61
2018-07-27T06:04:04.657Z,97885.03
2018-07-27T06:06:33.817Z,97887.02
2018-07-27T06:09:03.001Z,97890.20
2018-07-27T06:11:32.177Z,97889.16
2018-07-27T06:14:01.353Z,97891.75
2018-07-27T06:16:30.518Z,97889.03
2018-07-27T06:18:59.693Z,97891.00
2018-07-27T06:21:28.861Z,97885.12
2018-07-27T06:23:58.131Z,97888.06
2018-07-27T06:26:27.165Z,97888.67
2018-07-27T06:28:56.558Z,97887.20
2018-07-27T06:31:25.912Z,97883.85
2018-07-27T06:33:55.111Z,97887.48
2018-07-27T06:36:24.287Z,97886.45
2018-07-27T06:38:53.449Z,97890.55
2018-07-27T06:41:22.627Z,97894.53
2018-07-27T06:43:51.796Z,97896.60
2018-07-27T06:46:20.956Z,97896.39
2018-07-27T06:48:50.142Z,97903.72
2018-07-27T06:51:19.301Z,97903.79
2018-07-27T06:53:48.478Z,97908.16
2018-07-27T06:56:17.646Z,97915.06
2018-07-27T06:58:46.825Z,97912.23
2018-07-27T07:01:15.993Z,97906.78
2018-07-27T07:03:45.169Z,97913.73
2018-07-27T07:06:14.325Z,97907.16
2018-07-27T07:08:43.924Z,97907.86
2018-07-27T07:11:13.080Z,97901.50
2018-07-27T07:13:42.260Z,97898.06
2018-07-27T07:16:11.440Z,97898.63
2018-07-27T07:18:40.617Z,97901.45
2018-07-27T07:21:09.788Z,97901.70
2018-07-27T07:23:38.959Z,97896.34
2018-07-27T07:26:08.351Z,97891.67
2018-07-27T07:28:37.501Z,97888.57
2018-07-27T07:31:06.688Z,97889.64
2018-07-27T07:33:35.881Z,97887.45
2018-07-27T07:36:05.061Z,97885.04
2018-07-27T07:38:34.233Z,97884.17
2018-07-27T07:41:03.404Z,97883.70
2018-07-27T07:43:32.597Z,97884.78
2018-07-27T07:46:01.768Z,97882.66
2018-07-27T07:48:30.937Z,97876.75
2018-07-27T07:51:00.106Z,97876.48
2018-07-27T07:53:29.308Z,97870.67
2018-07-27T07:55:58.560Z,97871.95
2018-07-27T07:58:27.503Z,97877.47
2018-07-27T08:00:57.369Z,97876.83
2018-07-27T08:03:26.697Z,97874.98
2018-07-27T08:05:55.929Z,97872.58
2018-07-27T08:08:25.122Z,97866.59
2018-07-27T08:10:54.314Z,97871.56
2018-07-27T08:13:23.493Z,97864.47
2018-07-27T08:15:52.660Z,97864.98
2018-07-27T08:18:21.829Z,97860.77
2018-07-27T08:20:51.022Z,97864.78
2018-07-27T08:23:20.192Z,97859.98
2018-07-27T08:26:55.705Z,97858.97
2018-07-27T08:29:30.018Z,97859.27
2018-07-27T08:31:59.337Z,97856.78
2018-07-27T08:34:28.519Z,97850.86
2018-07-27T08:36:57.788Z,97852.30
2018-07-27T08:39:28.047Z,97851.20
2018-07-27T08:41:57.008Z,97856.97
2018-07-27T08:44:27.362Z,97848.66
2018-07-27T08:46:56.537Z,97847.13
2018-07-27T08:49:25.725Z,97847.08
2018-07-27T08:51:54.947Z,97849.17
2018-07-27T08:54:24.120Z,97847.13
2018-07-27T08:56:53.289Z,97842.45
2018-07-27T08:59:22.462Z,97836.22
2018-07-27T10:58:30.848Z,97765.55
2018-07-27T11:00:59.801Z,97767.58
2018-07-27T11:03:28.968Z,97758.04
2018-07-27T11:05:58.161Z,97760.00
2018-07-27T11:08:27.325Z,97766.14
2018-07-27T11:10:56.489Z,97760.47
2018-07-27T11:13:25.645Z,97747.02
2018-07-27T11:15:54.812Z,97747.09
2018-07-27T11:18:23.965Z,97742.98
2018-07-27T11:20:53.137Z,97737.52
2018-07-27T11:23:22.291Z,97741.14
2018-07-27T11:25:51.468Z,97734.85
2018-07-27T11:28:20.632Z,97731.77
2018-07-27T11:30:49.800Z,97733.16
2018-07-27T11:33:18.977Z,97727.84
2018-07-27T11:35:48.149Z,97731.79
2018-07-27T11:38:17.328Z,97731.63
2018-07-27T11:40:46.500Z,97728.66
2018-07-27T11:43:15.668Z,97728.16
2018-07-27T11:45:44.842Z,97726.34
2018-07-27T11:48:14.004Z,97723.18
2018-07-27T11:50:43.173Z,97715.47
2018-07-27T11:53:12.420Z,97719.06
2018-07-27T11:55:41.584Z,97722.52
2018-07-27T11:58:10.757Z,97715.77
2018-07-27T12:00:39.920Z,97705.44
2018-07-27T12:03:09.081Z,97707.16
2018-07-27T12:05:38.645Z,97705.33
2018-07-27T12:08:07.927Z,97703.28
2018-07-27T12:10:37.175Z,97701.69
2018-07-27T12:13:12.857Z,97695.06
2018-07-27T12:15:42.169Z,97697.70
2018-07-27T12:18:11.469Z,97699.08
2018-07-27T12:20:40.853Z,97690.39
2018-07-27T12:23:10.116Z,97692.00
2018-07-27T12:25:39.129Z,97683.09
2018-07-27T12:28:08.338Z,97682.16
2018-07-27T12:30:37.508Z,97675.92
2018-07-27T12:33:07.088Z,97668.33
2018-07-27T12:35:36.264Z,97663.19
2018-07-27T12:38:05.491Z,97658.64
2018-07-27T12:40:34.668Z,97662.70
2018-07-27T12:43:03.865Z,97656.66
2018-07-27T12:45:33.060Z,97652.87
2018-07-27T12:48:02.229Z,97655.13
2018-07-27T12:50:31.450Z,97654.22
2018-07-27T12:53:00.626Z,97654.36
2018-07-27T12:55:29.797Z,97648.75
2018-07-27T12:57:58.741Z,97639.66
2018-07-27T13:00:27.900Z,97646.61
2018-07-27T13:02:57.067Z,97647.24
2018-07-27T13:05:26.274Z,97638.67
2018-07-27T13:07:55.432Z,97641.38
2018-07-27T13:10:24.664Z,97638.01
2018-07-27T13:12:53.822Z,97632.30
2018-07-27T13:15:22.988Z,97629.55
2018-07-27T13:17:52.157Z,97628.48
2018-07-27T13:20:21.327Z,97630.14
2018-07-27T13:22:50.492Z,97626.46
2018-07-27T13:25:19.659Z,97631.44
2018-07-27T13:27:48.820Z,97624.45
2018-07-27T13:30:17.976Z,97616.31
2018-07-27T13:32:47.153Z,97613.19
2018-07-27T13:35:16.298Z,97604.00
2018-07-27T13:37:45.457Z,97601.67
2018-07-27T13:40:14.609Z,97602.25
2018-07-27T13:42:43.810Z,97606.05
2018-07-27T13:45:12.964Z,97603.05
2018-07-27T13:47:42.132Z,97597.66
2018-07-27T13:50:11.056Z,97589.83
2018-07-27T13:52:40.213Z,97590.84
2018-07-27T13:55:09.367Z,97592.78
2018-07-27T13:57:38.546Z,97585.32
2018-07-27T14:00:07.683Z,97578.83
2018-07-27T14:02:36.851Z,97581.98
2018-07-27T14:05:06.707Z,97580.16
2018-07-27T14:07:35.745Z,97577.50
2018-07-27T14:10:05.107Z,97583.23
2018-07-27T14:12:34.046Z,97580.89
2018-07-27T14:15:03.205Z,97575.80
2018-07-27T14:17:32.376Z,97577.48
2018-07-27T14:20:01.532Z,97571.36
2018-07-27T14:22:30.701Z,97575.34
2018-07-27T14:24:59.859Z,97576.06
2018-07-27T14:27:29.017Z,97572.27
2018-07-27T14:29:58.170Z,97565.54
2018-07-27T14:32:27.346Z,97564.03
2018-07-27T14:34:56.513Z,97559.20
2018-07-27T14:37:25.721Z,97556.52
2018-07-27T14:39:54.883Z,97549.92
2018-07-27T14:42:24.130Z,97548.91
2018-07-27T14:44:54.136Z,97544.34
2018-07-27T14:47:23.334Z,97532.63
2018-07-27T14:49:52.509Z,97532.33
2018-07-27T14:52:21.738Z,97532.22
2018-07-27T14:54:50.835Z,97531.00
2018-07-27T14:57:20.005Z,97524.21
2018-07-27T14:59:49.161Z,97526.33
2018-07-27T15:02:18.106Z,97519.21
2018-07-27T15:04:47.293Z,97526.91
2018-07-27T15:07:16.436Z,97527.55
2018-07-27T15:09:45.381Z,97527.55
2018-07-27T15:12:14.578Z,97531.58
2018-07-27T15:14:43.745Z,97532.53
2018-07-27T15:17:12.909Z,97530.34
2018-07-27T15:19:42.075Z,97519.31
2018-07-27T15:22:11.256Z,97516.44
2018-07-27T15:24:40.422Z,97521.47
2018-07-27T15:27:09.579Z,97511.84
2018-07-27T15:29:40.489Z,97518.17
2018-07-27T15:32:09.868Z,97506.13
2018-07-27T15:34:39.109Z,97509.77
2018-07-27T15:37:08.366Z,97513.00
2018-07-27T15:39:37.590Z,97516.06
2018-07-27T15:42:06.857Z,97515.53
2018-07-27T15:44:36.101Z,97514.19
2018-07-27T15:47:05.364Z,97505.58
2018-07-27T15:49:34.602Z,97507.44
2018-07-27T15:52:03.830Z,97501.59
2018-07-27T15:54:33.085Z,97506.72
2018-07-27T15:57:02.325Z,97498.61
2018-07-27T15:59:31.754Z,97495.75
2018-07-27T16:02:01.147Z,97491.91
2018-07-27T16:04:30.270Z,97489.66
2018-07-27T16:06:59.587Z,97485.63
2018-07-27T16:09:28.891Z,97485.50
2018-07-27T16:11:58.230Z,97488.53
2018-07-27T16:14:27.537Z,97473.14
2018-07-27T16:16:56.558Z,97479.45
2018-07-27T16:19:28.588Z,97485.97
2018-07-27T16:21:58.807Z,97482.01
2018-07-27T16:24:28.219Z,97480.58
2018-07-27T16:26:57.556Z,97481.79
2018-07-27T16:29:27.469Z,97486.50
2018-07-27T16:31:57.039Z,97484.53
2018-07-27T16:34:26.287Z,97484.98
2018-07-27T16:36:55.471Z,97490.43
2018-07-27T16:39:24.629Z,97489.84
2018-07-27T16:41:53.800Z,97486.00
2018-07-27T16:44:22.969Z,97496.52
2018-07-27T16:46:52.135Z,97508.53
2018-07-27T16:49:21.079Z,97499.20
2018-07-27T16:51:50.257Z,97499.34
2018-07-27T16:54:19.424Z,97504.11
2018-07-27T16:56:48.617Z,97501.33
2018-07-27T16:59:17.785Z,97502.87
2018-07-27T17:01:46.948Z,97514.52
2018-07-27T17:04:16.119Z,97507.93
2018-07-27T17:06:45.293Z,97514.74
2018-07-27T17:09:14.363Z,97509.80
2018-07-27T17:11:43.499Z,97519.42
2018-07-27T17:14:12.725Z,97518.36
2018-07-27T17:16:41.903Z,97521.86
2018-07-27T17:19:11.084Z,97521.97
2018-07-27T17:21:40.268Z,97524.50
2018-07-27T17:24:09.424Z,97520.39
2018-07-27T17:26:38.584Z,97514.66
2018-07-27T17:29:07.777Z,97516.44
2018-07-27T17:31:36.943Z,97516.09
2018-07-27T17:34:06.637Z,97516.78
2018-07-27T17:36:35.818Z,97514.14
2018-07-27T17:39:08.472Z,97521.52
2018-07-27T17:41:37.662Z,97517.80
2018-07-27T17:44:06.940Z,97513.61
2018-07-27T17:46:36.104Z,97518.19
2018-07-27T17:49:05.280Z,97518.44
2018-07-27T17:51:34.456Z,97525.70
2018-07-27T17:54:03.620Z,97522.90
2018-07-27T17:56:32.841Z,97518.03
2018-07-27T17:59:02.021Z,97523.72
2018-07-27T18:01:31.193Z,97519.46
2018-07-27T18:04:00.357Z,97523.09
2018-07-27T18:06:29.539Z,97524.47
2018-07-27T18:08:58.876Z,97528.74
2018-07-27T18:11:28.138Z,97521.45
2018-07-27T18:13:57.317Z,97520.49
2018-07-27T18:16:26.558Z,97517.19
2018-07-27T18:18:55.783Z,97521.22
2018-07-27T18:21:24.971Z,97520.61
2018-07-27T18:23:54.127Z,97521.12
2018-07-27T18:26:23.322Z,97524.73
2018-07-27T18:28:52.487Z,97524.95
2018-07-27T18:31:21.728Z,97525.45
2018-07-27T18:33:50.911Z,97528.00
2018-07-27T18:36:19.871Z,97532.13
2018-07-27T18:38:49.028Z,97530.87
2018-07-27T18:41:18.246Z,97525.31
2018-07-27T18:43:47.419Z,97536.86
2018-07-27T18:46:16.644Z,97534.61
2018-07-27T18:48:45.765Z,97535.99
2018-07-27T18:51:14.704Z,97537.23
2018-07-27T18:53:43.874Z,97532.36
2018-07-27T18:56:13.075Z,97538.64
2018-07-27T18:58:42.223Z,97539.93
2018-07-27T19:01:11.393Z,97538.77
2018-07-27T19:03:40.575Z,97538.31
2018-07-27T19:06:09.749Z,97539.81
2018-07-27T19:08:38.701Z,97543.73
2018-07-27T19:11:07.900Z,97543.42
2018-07-27T19:13:37.238Z,97547.96
2018-07-27T19:16:07.045Z,97549.16
2018-07-27T19:18:36.044Z,97552.01
2018-07-27T19:21:05.010Z,97552.16
2018-07-27T19:23:34.207Z,97550.12
2018-07-27T19:26:03.369Z,97550.11
2018-07-27T19:28:32.550Z,97552.93
2018-07-27T19:31:01.768Z,97550.19
2018-07-27T19:33:30.956Z,97554.80
2018-07-27T19:36:00.137Z,97557.84
2018-07-27T19:38:29.314Z,97553.13
2018-07-27T19:40:58.505Z,97550.61
2018-07-27T19:43:27.681Z,97554.09
2018-07-27T19:45:56.874Z,97549.53
2018-07-27T19:48:26.142Z,97550.91
2018-07-27T19:50:56.268Z,97554.55
2018-07-27T19:53:25.780Z,97549.23
2018-07-27T19:55:54.977Z,97550.86
2018-07-27T19:58:24.145Z,97548.47
2018-07-27T20:00:53.338Z,97545.24
2018-07-27T20:03:22.596Z,97551.66
2018-07-27T20:05:51.797Z,97546.32
2018-07-27T20:08:21.085Z,97542.08
2018-07-27T20:10:50.267Z,97541.70
2018-07-27T20:13:19.643Z,97536.14
2018-07-27T20:15:48.860Z,97538.47
2018-07-27T20:18:18.078Z,97535.03
2018-07-27T20:20:47.289Z,97541.34
2018-07-27T20:23:16.530Z,97541.21
2018-07-27T20:25:45.748Z,97545.66
2018-07-27T20:28:14.974Z,97543.98
2018-07-27T20:30:44.166Z,97554.22
2018-07-27T20:33:13.498Z,97558.89
2018-07-27T20:35:42.771Z,97558.75
2018-07-27T20:38:11.963Z,97555.43
2018-07-27T20:40:41.390Z,97558.75
2018-07-27T20:43:10.600Z,97553.57
2018-07-27T20:45:39.582Z,97551.28
2018-07-27T20:48:08.627Z,97546.53
2018-07-27T20:50:37.967Z,97546.80
2018-07-27T20:53:07.231Z,97546.66
2018-07-27T20:55:36.487Z,97544.63
2018-07-27T20:58:05.899Z,97544.46
2018-07-27T21:00:35.094Z,97547.27
2018-07-27T21:03:04.283Z,97553.05
2018-07-27T21:05:33.568Z,97551.61
2018-07-27T21:08:02.863Z,97547.20
2018-07-27T21:10:32.159Z,97546.07
2018-07-27T21:13:01.806Z,97542.19
2018-07-27T21:15:31.047Z,97539.75
2018-07-27T21:18:00.476Z,97538.08
2018-07-27T21:20:29.707Z,97534.81
2018-07-27T21:22:58.958Z,97538.08
2018-07-27T21:25:28.124Z,97543.34
2018-07-27T21:27:57.463Z,97543.20
2018-07-27T21:30:26.740Z,97545.34
2018-07-27T21:32:55.922Z,97547.98
2018-07-27T21:35:25.153Z,97546.58
2018-07-27T21:37:54.412Z,97547.39
2018-07-27T21:40:23.693Z,97543.57
2018-07-27T21:42:52.954Z,97538.87
2018-07-27T21:45:22.162Z,97534.78
2018-07-27T21:47:51.586Z,97537.41
2018-07-27T21:50:20.524Z,97531.44
2018-07-27T21:52:49.884Z,97527.49
2018-07-27T21:55:19.599Z,97527.84
2018-07-27T21:57:48.855Z,97527.78
2018-07-27T22:00:17.998Z,97523.27
2018-07-27T22:02:46.940Z,97518.52
2018-07-27T22:05:16.116Z,97527.33
2018-07-27T22:07:45.286Z,97527.06
2018-07-27T22:10:14.462Z,97520.62
2018-07-27T22:12:43.645Z,97519.54
2018-07-27T22:15:16.888Z,97514.21
2018-07-27T22:17:46.053Z,97514.09
2018-07-27T22:20:15.225Z,97508.73
2018-07-27T22:22:44.392Z,97511.24
2018-07-27T22:25:13.557Z,97518.61
2018-07-27T22:27:43.064Z,97515.28
2018-07-27T22:30:12.679Z,97512.89
2018-07-27T22:32:41.829Z,97509.95
2018-07-27T22:35:11.009Z,97505.34
2018-07-27T22:37:40.905Z,97503.22
2018-07-27T22:40:11.476Z,97497.15
2018-07-27T22:42:40.688Z,97504.12
2018-07-27T22:45:10.794Z,97489.48
2018-07-27T22:47:39.753Z,97483.38
2018-07-27T22:50:08.944Z,97490.31
2018-07-27T22:52:38.156Z,97485.14
2018-07-27T22:55:09.940Z,97485.88
2018-07-27T22:57:39.679Z,97489.32
2018-07-27T23:00:12.676Z,97484.51
2018-07-27T23:02:42.252Z,97481.41
2018-07-27T23:05:12.164Z,97484.89
2018-07-27T23:07:41.104Z,97483.42
2018-07-27T23:10:11.172Z,97486.17
2018-07-27T23:12:40.777Z,97490.48
2018-07-27T23:15:11.425Z,97488.30
2018-07-27T23:17:40.619Z,97491.23
2018-07-27T23:20:12.799Z,97491.17
2018-07-27T23:22:42.587Z,97485.61
2018-07-27T23:25:11.762Z,97479.58
2018-07-27T23:27:40.928Z,97487.01
2018-07-27T23:30:12.227Z,97485.89
2018-07-27T23:32:41.529Z,97488.45
2018-07-27T23:35:10.696Z,97494.05
2018-07-27T23:37:39.876Z,97490.16
2018-07-27T23:40:10.036Z,97489.59
2018-07-27T23:42:39.216Z,97490.80
2018-07-27T23:45:09.488Z,97485.61
2018-07-27T23:47:38.701Z,97484.03
2018-07-27T23:50:08.255Z,97488.19
2018-07-27T23:52:37.429Z,97486.03
2018-07-27T23:55:06.764Z,97486.50
2018-07-27T23:57:35.704Z,97481.64
